BTK6267 WAPP-WAAA
Flight info
| Callsign | BTK6267 |
|---|---|
| Flight time | 1h 22m |
| Altitude | 38000 |
| Route | HOLBA W53 SUGTA |
| Aircraft | A320/M-SDE3FGHIRWY/LB1 |
Departure
| Time | 2026-04-20 01:41 |
|---|---|
| Airport | Pattimura International Airport (WAPP) |
Arrival
| Time | 2026-04-20 03:03 |
|---|---|
| Airport | Sultan Hasanuddin International Airport (WAAA) |
| Time | Latitude | Longitude | Altitude | Speed | Heading |
|---|---|---|---|---|---|
| 2026-04-20 01:18 | -3.70628 | 128.08857 | 0 ft | 0 kts | 359° |
| 2026-04-20 01:31 | -3.70636 | 128.08857 | 0 ft | 0 kts | 358° |
| 2026-04-20 01:31 | -3.70653 | 128.08857 | 36 ft | 3 kts | 1° |
| 2026-04-20 01:32 | -3.70673 | 128.08857 | 34 ft | 3 kts | 360° |
| 2026-04-20 01:32 | -3.70688 | 128.08856 | 34 ft | 1 kts | 331° |
| 2026-04-20 01:32 | -3.70694 | 128.08862 | 36 ft | 1 kts | 275° |
| 2026-04-20 01:32 | -3.70695 | 128.08871 | 36 ft | 1 kts | 272° |
| 2026-04-20 01:33 | -3.70695 | 128.08880 | 35 ft | 1 kts | 269° |
| 2026-04-20 01:33 | -3.70695 | 128.08888 | 36 ft | 1 kts | 269° |
| 2026-04-20 01:33 | -3.70695 | 128.08892 | 36 ft | 0 kts | 269° |
| 2026-04-20 01:33 | -3.70695 | 128.08891 | 36 ft | 0 kts | 269° |
| 2026-04-20 01:35 | -3.70695 | 128.08887 | 35 ft | 2 kts | 270° |
| 2026-04-20 01:35 | -3.70695 | 128.08854 | 35 ft | 6 kts | 270° |
| 2026-04-20 01:36 | -3.70695 | 128.08806 | 36 ft | 8 kts | 269° |
| 2026-04-20 01:36 | -3.70736 | 128.08769 | 36 ft | 10 kts | 187° |
| 2026-04-20 01:36 | -3.70811 | 128.08766 | 36 ft | 12 kts | 181° |
| 2026-04-20 01:36 | -3.70901 | 128.08766 | 36 ft | 14 kts | 179° |
| 2026-04-20 01:37 | -3.70995 | 128.08773 | 35 ft | 14 kts | 161° |
| 2026-04-20 01:37 | -3.71064 | 128.08835 | 34 ft | 14 kts | 135° |
| 2026-04-20 01:37 | -3.71152 | 128.08843 | 34 ft | 16 kts | 221° |
| 2026-04-20 01:37 | -3.71233 | 128.08763 | 35 ft | 17 kts | 224° |
| 2026-04-20 01:38 | -3.71324 | 128.08673 | 35 ft | 20 kts | 224° |
| 2026-04-20 01:38 | -3.71425 | 128.08571 | 36 ft | 21 kts | 225° |
| 2026-04-20 01:38 | -3.71534 | 128.08464 | 36 ft | 23 kts | 225° |
| 2026-04-20 01:38 | -3.71653 | 128.08345 | 36 ft | 25 kts | 224° |
| 2026-04-20 01:39 | -3.71748 | 128.08245 | 35 ft | 18 kts | 242° |
| 2026-04-20 01:39 | -3.71784 | 128.08154 | 34 ft | 14 kts | 197° |
| 2026-04-20 01:39 | -3.71811 | 128.08190 | 35 ft | 4 kts | 43° |
| 2026-04-20 01:39 | -3.71794 | 128.08204 | 34 ft | 0 kts | 45° |
| 2026-04-20 01:40 | -3.71793 | 128.08206 | 35 ft | 2 kts | 45° |
| 2026-04-20 01:40 | -3.71643 | 128.08356 | 36 ft | 67 kts | 44° |
| 2026-04-20 01:40 | -3.71161 | 128.08834 | 34 ft | 126 kts | 45° |
| 2026-04-20 01:40 | -3.70443 | 128.09566 | 104 ft | 163 kts | 46° |
| 2026-04-20 01:41 | -3.69662 | 128.10418 | 661 ft | 169 kts | 52° |
| 2026-04-20 01:41 | -3.68911 | 128.11335 | 1311 ft | 172 kts | 53° |
| 2026-04-20 01:41 | -3.68345 | 128.12426 | 1645 ft | 188 kts | 76° |
| 2026-04-20 01:41 | -3.68222 | 128.13795 | 1861 ft | 211 kts | 97° |
| 2026-04-20 01:42 | -3.68387 | 128.15299 | 2354 ft | 221 kts | 90° |
| 2026-04-20 01:42 | -3.68188 | 128.16835 | 3066 ft | 225 kts | 75° |
| 2026-04-20 01:42 | -3.67592 | 128.18293 | 3821 ft | 229 kts | 62° |
| 2026-04-20 01:42 | -3.66659 | 128.19606 | 4465 ft | 238 kts | 53° |
| 2026-04-20 01:43 | -3.65611 | 128.20967 | 4953 ft | 252 kts | 54° |
| 2026-04-20 01:43 | -3.64362 | 128.22231 | 5615 ft | 265 kts | 35° |
| 2026-04-20 01:43 | -3.62592 | 128.22903 | 6100 ft | 282 kts | 6° |
| 2026-04-20 01:43 | -3.60638 | 128.22637 | 6827 ft | 290 kts | 337° |
| 2026-04-20 01:44 | -3.59018 | 128.21437 | 7534 ft | 296 kts | 307° |
| 2026-04-20 01:44 | -3.58191 | 128.19568 | 8246 ft | 298 kts | 277° |
| 2026-04-20 01:44 | -3.58301 | 128.17493 | 9014 ft | 301 kts | 262° |
| 2026-04-20 01:44 | -3.58636 | 128.15421 | 9812 ft | 303 kts | 262° |
| 2026-04-20 01:45 | -3.58985 | 128.13344 | 10339 ft | 315 kts | 262° |
| 2026-04-20 01:45 | -3.59365 | 128.11075 | 10517 ft | 338 kts | 262° |
| 2026-04-20 01:45 | -3.59761 | 128.08684 | 10730 ft | 356 kts | 262° |
| 2026-04-20 01:45 | -3.60161 | 128.06246 | 11240 ft | 363 kts | 262° |
| 2026-04-20 01:46 | -3.60571 | 128.03736 | 11808 ft | 368 kts | 261° |
| 2026-04-20 01:46 | -3.60981 | 128.01201 | 12400 ft | 371 kts | 261° |
| 2026-04-20 01:46 | -3.61386 | 127.98646 | 13039 ft | 372 kts | 260° |
| 2026-04-20 01:46 | -3.61788 | 127.96078 | 13644 ft | 375 kts | 260° |
| 2026-04-20 01:47 | -3.62192 | 127.93492 | 14223 ft | 377 kts | 260° |
| 2026-04-20 01:47 | -3.62601 | 127.90894 | 14792 ft | 380 kts | 260° |
| 2026-04-20 01:47 | -3.63014 | 127.88276 | 15348 ft | 382 kts | 260° |
| 2026-04-20 01:47 | -3.63431 | 127.85638 | 15891 ft | 384 kts | 260° |
| 2026-04-20 01:48 | -3.63848 | 127.82989 | 16425 ft | 387 kts | 260° |
| 2026-04-20 01:48 | -3.64268 | 127.80317 | 16941 ft | 390 kts | 260° |
| 2026-04-20 01:48 | -3.64692 | 127.77630 | 17450 ft | 392 kts | 260° |
| 2026-04-20 01:48 | -3.65119 | 127.74926 | 17951 ft | 395 kts | 260° |
| 2026-04-20 01:49 | -3.65548 | 127.72202 | 18452 ft | 397 kts | 260° |
| 2026-04-20 01:49 | -3.65991 | 127.69466 | 18941 ft | 399 kts | 258° |
| 2026-04-20 01:49 | -3.66748 | 127.66785 | 19407 ft | 401 kts | 250° |
| 2026-04-20 01:49 | -3.67639 | 127.64127 | 19882 ft | 404 kts | 250° |
| 2026-04-20 01:50 | -3.68535 | 127.61453 | 20332 ft | 406 kts | 250° |
| 2026-04-20 01:50 | -3.69434 | 127.58762 | 20777 ft | 409 kts | 250° |
| 2026-04-20 01:50 | -3.70337 | 127.56052 | 21222 ft | 412 kts | 251° |
| 2026-04-20 01:50 | -3.71245 | 127.53325 | 21651 ft | 414 kts | 251° |
| 2026-04-20 01:51 | -3.72159 | 127.50584 | 22061 ft | 417 kts | 251° |
| 2026-04-20 01:51 | -3.73081 | 127.47826 | 22458 ft | 419 kts | 250° |
| 2026-04-20 01:51 | -3.74007 | 127.45054 | 22844 ft | 421 kts | 251° |
| 2026-04-20 01:51 | -3.74937 | 127.42264 | 23217 ft | 423 kts | 251° |
| 2026-04-20 01:52 | -3.75870 | 127.39461 | 23589 ft | 426 kts | 250° |
| 2026-04-20 01:52 | -3.76774 | 127.36631 | 23951 ft | 428 kts | 255° |
| 2026-04-20 01:52 | -3.77355 | 127.33739 | 24288 ft | 431 kts | 258° |
| 2026-04-20 01:52 | -3.77899 | 127.30781 | 24624 ft | 433 kts | 258° |
| 2026-04-20 01:53 | -3.78449 | 127.27809 | 24872 ft | 435 kts | 258° |
| 2026-04-20 01:53 | -3.79005 | 127.24830 | 24920 ft | 435 kts | 258° |
| 2026-04-20 01:53 | -3.79563 | 127.21858 | 24920 ft | 435 kts | 258° |
| 2026-04-20 01:53 | -3.80120 | 127.18880 | 24919 ft | 435 kts | 258° |
| 2026-04-20 01:54 | -3.80676 | 127.15901 | 24920 ft | 435 kts | 258° |
| 2026-04-20 01:54 | -3.81228 | 127.12924 | 24920 ft | 435 kts | 258° |
| 2026-04-20 01:54 | -3.81781 | 127.09945 | 24921 ft | 435 kts | 258° |
| 2026-04-20 01:54 | -3.82335 | 127.06969 | 24921 ft | 435 kts | 258° |
| 2026-04-20 01:55 | -3.82888 | 127.03993 | 24920 ft | 435 kts | 258° |
| 2026-04-20 01:55 | -3.83263 | 127.01977 | 24920 ft | 435 kts | 258° |
| 2026-04-20 01:55 | -3.83997 | 126.98036 | 24920 ft | 435 kts | 258° |
| 2026-04-20 01:55 | -3.84549 | 126.95059 | 24921 ft | 435 kts | 258° |
| 2026-04-20 01:56 | -3.85098 | 126.92080 | 24920 ft | 435 kts | 258° |
| 2026-04-20 01:56 | -3.85648 | 126.89100 | 24920 ft | 435 kts | 258° |
| 2026-04-20 01:56 | -3.86197 | 126.86123 | 24921 ft | 435 kts | 258° |
| 2026-04-20 01:56 | -3.86748 | 126.83143 | 24919 ft | 435 kts | 258° |
| 2026-04-20 01:57 | -3.87299 | 126.80166 | 24920 ft | 435 kts | 258° |
| 2026-04-20 01:57 | -3.87853 | 126.77188 | 24921 ft | 435 kts | 258° |
| 2026-04-20 01:57 | -3.88409 | 126.74213 | 24922 ft | 435 kts | 258° |
| 2026-04-20 01:57 | -3.88779 | 126.72232 | 25116 ft | 437 kts | 258° |
| 2026-04-20 01:58 | -3.89337 | 126.69238 | 25530 ft | 438 kts | 259° |
| 2026-04-20 01:58 | -3.89889 | 126.66242 | 25919 ft | 438 kts | 258° |
| 2026-04-20 01:58 | -3.90445 | 126.63231 | 26225 ft | 441 kts | 258° |
| 2026-04-20 01:58 | -3.91007 | 126.60203 | 26503 ft | 444 kts | 258° |
| 2026-04-20 01:59 | -3.91569 | 126.57158 | 26768 ft | 447 kts | 258° |
| 2026-04-20 01:59 | -3.92137 | 126.54087 | 27029 ft | 449 kts | 258° |
| 2026-04-20 01:59 | -3.92710 | 126.51002 | 27285 ft | 452 kts | 258° |
| 2026-04-20 01:59 | -3.93287 | 126.47897 | 27536 ft | 455 kts | 258° |
| 2026-04-20 02:00 | -3.93865 | 126.44772 | 27778 ft | 458 kts | 258° |
| 2026-04-20 02:00 | -3.94447 | 126.41627 | 28030 ft | 461 kts | 258° |
| 2026-04-20 02:00 | -3.95007 | 126.38457 | 28277 ft | 464 kts | 259° |
| 2026-04-20 02:00 | -3.95532 | 126.35257 | 28520 ft | 467 kts | 260° |
| 2026-04-20 02:01 | -3.96036 | 126.32038 | 28764 ft | 470 kts | 260° |
| 2026-04-20 02:01 | -3.96535 | 126.28799 | 29006 ft | 472 kts | 260° |
| 2026-04-20 02:01 | -3.97036 | 126.25540 | 29239 ft | 475 kts | 260° |
| 2026-04-20 02:01 | -3.97546 | 126.22261 | 29482 ft | 477 kts | 260° |
| 2026-04-20 02:02 | -3.98067 | 126.18971 | 29727 ft | 479 kts | 260° |
| 2026-04-20 02:02 | -3.98598 | 126.15679 | 30087 ft | 479 kts | 260° |
| 2026-04-20 02:02 | -3.99132 | 126.12390 | 30444 ft | 478 kts | 260° |
| 2026-04-20 02:02 | -3.99666 | 126.09101 | 30774 ft | 479 kts | 260° |
| 2026-04-20 02:03 | -4.00198 | 126.05804 | 31089 ft | 480 kts | 260° |
| 2026-04-20 02:03 | -4.00727 | 126.02505 | 31411 ft | 480 kts | 260° |
| 2026-04-20 02:03 | -4.01256 | 125.99208 | 31730 ft | 480 kts | 260° |
| 2026-04-20 02:03 | -4.01786 | 125.95908 | 32061 ft | 480 kts | 260° |
| 2026-04-20 02:04 | -4.02315 | 125.92604 | 32382 ft | 481 kts | 260° |
| 2026-04-20 02:04 | -4.02842 | 125.89295 | 32709 ft | 481 kts | 260° |
| 2026-04-20 02:04 | -4.03370 | 125.85981 | 33026 ft | 482 kts | 260° |
| 2026-04-20 02:04 | -4.03900 | 125.82670 | 33334 ft | 482 kts | 260° |
| 2026-04-20 02:05 | -4.04423 | 125.79398 | 33638 ft | 482 kts | 260° |
| 2026-04-20 02:05 | -4.04953 | 125.76081 | 33925 ft | 483 kts | 260° |
| 2026-04-20 02:05 | -4.05486 | 125.72760 | 34224 ft | 483 kts | 260° |
| 2026-04-20 02:05 | -4.06015 | 125.69440 | 34514 ft | 483 kts | 259° |
| 2026-04-20 02:06 | -4.06545 | 125.66123 | 34802 ft | 483 kts | 259° |
| 2026-04-20 02:06 | -4.07077 | 125.62800 | 35097 ft | 483 kts | 259° |
| 2026-04-20 02:06 | -4.07608 | 125.59483 | 35377 ft | 482 kts | 259° |
| 2026-04-20 02:06 | -4.08139 | 125.56166 | 35647 ft | 482 kts | 259° |
| 2026-04-20 02:07 | -4.08669 | 125.52853 | 35922 ft | 482 kts | 259° |
| 2026-04-20 02:07 | -4.09197 | 125.49542 | 36178 ft | 481 kts | 259° |
| 2026-04-20 02:07 | -4.09725 | 125.46230 | 36438 ft | 481 kts | 259° |
| 2026-04-20 02:07 | -4.10251 | 125.42924 | 36678 ft | 481 kts | 259° |
| 2026-04-20 02:08 | -4.10777 | 125.39613 | 36905 ft | 480 kts | 259° |
| 2026-04-20 02:08 | -4.11302 | 125.36313 | 37140 ft | 480 kts | 259° |
| 2026-04-20 02:08 | -4.11826 | 125.33016 | 37359 ft | 479 kts | 259° |
| 2026-04-20 02:08 | -4.12350 | 125.29719 | 37562 ft | 479 kts | 259° |
| 2026-04-20 02:09 | -4.12874 | 125.26427 | 37753 ft | 479 kts | 259° |
| 2026-04-20 02:09 | -4.13399 | 125.23135 | 37892 ft | 479 kts | 259° |
| 2026-04-20 02:09 | -4.14462 | 125.16506 | 37920 ft | 483 kts | 259° |
| 2026-04-20 02:10 | -4.15526 | 125.09856 | 37921 ft | 484 kts | 259° |
| 2026-04-20 02:10 | -4.16583 | 125.03199 | 37920 ft | 484 kts | 259° |
| 2026-04-20 02:11 | -4.17633 | 124.96539 | 37921 ft | 484 kts | 259° |
| 2026-04-20 02:11 | -4.18685 | 124.89883 | 37924 ft | 484 kts | 259° |
| 2026-04-20 02:12 | -4.19740 | 124.83263 | 37926 ft | 484 kts | 259° |
| 2026-04-20 02:12 | -4.20801 | 124.76597 | 37932 ft | 485 kts | 259° |
| 2026-04-20 02:13 | -4.21855 | 124.69931 | 37938 ft | 484 kts | 259° |
| 2026-04-20 02:13 | -4.22900 | 124.63280 | 37944 ft | 483 kts | 259° |
| 2026-04-20 02:14 | -4.23958 | 124.56639 | 37942 ft | 483 kts | 259° |
| 2026-04-20 02:14 | -4.25021 | 124.50003 | 37944 ft | 483 kts | 259° |
| 2026-04-20 02:15 | -4.26063 | 124.43359 | 37943 ft | 482 kts | 259° |
| 2026-04-20 02:15 | -4.27107 | 124.36721 | 37942 ft | 482 kts | 259° |
| 2026-04-20 02:16 | -4.28157 | 124.30092 | 37942 ft | 482 kts | 259° |
| 2026-04-20 02:16 | -4.29207 | 124.23452 | 37942 ft | 482 kts | 259° |
| 2026-04-20 02:17 | -4.30255 | 124.16817 | 37941 ft | 482 kts | 259° |
| 2026-04-20 02:17 | -4.31300 | 124.10187 | 37935 ft | 482 kts | 259° |
| 2026-04-20 02:18 | -4.32347 | 124.03556 | 37937 ft | 482 kts | 259° |
| 2026-04-20 02:18 | -4.33395 | 123.96926 | 37937 ft | 482 kts | 259° |
| 2026-04-20 02:19 | -4.34439 | 123.90296 | 37937 ft | 482 kts | 259° |
| 2026-04-20 02:19 | -4.35473 | 123.83662 | 37937 ft | 482 kts | 259° |
| 2026-04-20 02:20 | -4.36508 | 123.77031 | 37936 ft | 482 kts | 259° |
| 2026-04-20 02:20 | -4.37556 | 123.70403 | 37935 ft | 482 kts | 259° |
| 2026-04-20 02:21 | -4.39130 | 123.60466 | 37934 ft | 481 kts | 259° |
| 2026-04-20 02:22 | -4.40163 | 123.53838 | 37933 ft | 481 kts | 259° |
| 2026-04-20 02:22 | -4.41202 | 123.47214 | 37932 ft | 481 kts | 259° |
| 2026-04-20 02:23 | -4.42240 | 123.40638 | 37924 ft | 481 kts | 259° |
| 2026-04-20 02:23 | -4.43297 | 123.34003 | 37924 ft | 483 kts | 259° |
| 2026-04-20 02:24 | -4.44361 | 123.27348 | 37929 ft | 484 kts | 259° |
| 2026-04-20 02:24 | -4.45426 | 123.20676 | 37933 ft | 485 kts | 259° |
| 2026-04-20 02:25 | -4.46488 | 123.13994 | 37936 ft | 486 kts | 259° |
| 2026-04-20 02:25 | -4.47555 | 123.07304 | 37936 ft | 486 kts | 259° |
| 2026-04-20 02:26 | -4.48620 | 123.00604 | 37932 ft | 488 kts | 259° |
| 2026-04-20 02:26 | -4.49688 | 122.93885 | 37929 ft | 489 kts | 259° |
| 2026-04-20 02:27 | -4.50761 | 122.87148 | 37948 ft | 489 kts | 259° |
| 2026-04-20 02:27 | -4.51834 | 122.80411 | 37966 ft | 489 kts | 259° |
| 2026-04-20 02:28 | -4.52898 | 122.73691 | 37979 ft | 488 kts | 260° |
| 2026-04-20 02:28 | -4.53959 | 122.66993 | 37982 ft | 485 kts | 260° |
| 2026-04-20 02:29 | -4.55011 | 122.60327 | 37978 ft | 483 kts | 260° |
| 2026-04-20 02:29 | -4.56059 | 122.53689 | 37977 ft | 482 kts | 260° |
| 2026-04-20 02:30 | -4.57115 | 122.47066 | 37969 ft | 481 kts | 260° |
| 2026-04-20 02:30 | -4.58162 | 122.40455 | 37968 ft | 480 kts | 260° |
| 2026-04-20 02:31 | -4.59201 | 122.33850 | 37965 ft | 480 kts | 260° |
| 2026-04-20 02:31 | -4.60246 | 122.27249 | 37968 ft | 479 kts | 260° |
| 2026-04-20 02:32 | -4.61296 | 122.20653 | 37966 ft | 479 kts | 260° |
| 2026-04-20 02:32 | -4.62331 | 122.14107 | 37955 ft | 479 kts | 260° |
| 2026-04-20 02:33 | -4.63371 | 122.07514 | 37961 ft | 479 kts | 260° |
| 2026-04-20 02:33 | -4.64397 | 122.00921 | 37959 ft | 479 kts | 263° |
| 2026-04-20 02:34 | -4.64566 | 121.94251 | 37957 ft | 479 kts | 269° |
| 2026-04-20 02:34 | -4.64576 | 121.87564 | 37955 ft | 480 kts | 269° |
| 2026-04-20 02:35 | -4.64592 | 121.80871 | 37955 ft | 481 kts | 269° |
| 2026-04-20 02:35 | -4.64605 | 121.74172 | 37959 ft | 481 kts | 269° |
| 2026-04-20 02:36 | -4.64614 | 121.67469 | 37955 ft | 481 kts | 269° |
| 2026-04-20 02:36 | -4.64630 | 121.60763 | 37943 ft | 481 kts | 269° |
| 2026-04-20 02:37 | -4.64642 | 121.54049 | 37956 ft | 482 kts | 269° |
| 2026-04-20 02:37 | -4.64654 | 121.47331 | 37960 ft | 482 kts | 269° |
| 2026-04-20 02:38 | -4.64665 | 121.40620 | 37744 ft | 480 kts | 270° |
| 2026-04-20 02:38 | -4.64671 | 121.37276 | 37494 ft | 479 kts | 269° |
| 2026-04-20 02:38 | -4.64680 | 121.33943 | 37245 ft | 478 kts | 269° |
| 2026-04-20 02:38 | -4.64688 | 121.30611 | 36996 ft | 478 kts | 269° |
| 2026-04-20 02:39 | -4.64694 | 121.27278 | 36746 ft | 478 kts | 269° |
| 2026-04-20 02:39 | -4.64700 | 121.23947 | 36497 ft | 478 kts | 269° |
| 2026-04-20 02:39 | -4.64705 | 121.20620 | 36248 ft | 478 kts | 269° |
| 2026-04-20 02:39 | -4.64709 | 121.17291 | 36000 ft | 478 kts | 269° |
| 2026-04-20 02:40 | -4.64714 | 121.13959 | 35750 ft | 478 kts | 269° |
| 2026-04-20 02:40 | -4.64720 | 121.10628 | 35500 ft | 478 kts | 269° |
| 2026-04-20 02:40 | -4.64728 | 121.07290 | 35253 ft | 479 kts | 269° |
| 2026-04-20 02:40 | -4.64735 | 121.03949 | 34633 ft | 482 kts | 269° |
| 2026-04-20 02:41 | -4.64739 | 121.00571 | 33655 ft | 489 kts | 269° |
| 2026-04-20 02:41 | -4.64742 | 120.97144 | 32689 ft | 494 kts | 269° |
| 2026-04-20 02:41 | -4.64747 | 120.93687 | 31636 ft | 500 kts | 270° |
| 2026-04-20 02:41 | -4.64754 | 120.90181 | 30727 ft | 502 kts | 270° |
| 2026-04-20 02:42 | -4.64765 | 120.86753 | 30173 ft | 496 kts | 270° |
| 2026-04-20 02:42 | -4.64772 | 120.83309 | 29493 ft | 492 kts | 270° |
| 2026-04-20 02:42 | -4.64773 | 120.79896 | 28846 ft | 488 kts | 270° |
| 2026-04-20 02:42 | -4.64773 | 120.76538 | 28618 ft | 474 kts | 270° |
| 2026-04-20 02:43 | -4.64772 | 120.73290 | 28507 ft | 458 kts | 270° |
| 2026-04-20 02:43 | -4.64851 | 120.70155 | 28401 ft | 443 kts | 262° |
| 2026-04-20 02:43 | -4.65554 | 120.67212 | 28303 ft | 428 kts | 247° |
| 2026-04-20 02:43 | -4.66948 | 120.64610 | 28211 ft | 425 kts | 234° |
| 2026-04-20 02:44 | -4.68622 | 120.62155 | 28117 ft | 427 kts | 234° |
| 2026-04-20 02:44 | -4.71963 | 120.57251 | 27929 ft | 425 kts | 234° |
| 2026-04-20 02:44 | -4.73628 | 120.54807 | 27835 ft | 424 kts | 234° |
| 2026-04-20 02:45 | -4.75285 | 120.52368 | 27733 ft | 423 kts | 234° |
| 2026-04-20 02:45 | -4.76939 | 120.49938 | 27657 ft | 421 kts | 234° |
| 2026-04-20 02:45 | -4.78589 | 120.47518 | 27483 ft | 421 kts | 234° |
| 2026-04-20 02:45 | -4.80244 | 120.45094 | 26919 ft | 420 kts | 234° |
| 2026-04-20 02:46 | -4.81890 | 120.42681 | 26344 ft | 419 kts | 234° |
| 2026-04-20 02:46 | -4.83533 | 120.40274 | 25771 ft | 417 kts | 234° |
| 2026-04-20 02:46 | -4.84616 | 120.38687 | 25395 ft | 416 kts | 234° |
| 2026-04-20 02:46 | -4.86792 | 120.35495 | 24640 ft | 413 kts | 234° |
| 2026-04-20 02:47 | -4.87860 | 120.33926 | 24278 ft | 411 kts | 235° |
| 2026-04-20 02:47 | -4.89467 | 120.31563 | 23747 ft | 409 kts | 235° |
| 2026-04-20 02:47 | -4.91063 | 120.29215 | 23223 ft | 406 kts | 235° |
| 2026-04-20 02:47 | -4.92649 | 120.26889 | 22719 ft | 403 kts | 235° |
| 2026-04-20 02:48 | -4.94227 | 120.24573 | 22212 ft | 401 kts | 235° |
| 2026-04-20 02:48 | -4.95792 | 120.22274 | 21743 ft | 397 kts | 235° |
| 2026-04-20 02:48 | -4.97342 | 120.19997 | 21263 ft | 394 kts | 235° |
| 2026-04-20 02:48 | -4.98879 | 120.17736 | 20791 ft | 390 kts | 235° |
| 2026-04-20 02:49 | -5.00400 | 120.15499 | 20317 ft | 387 kts | 235° |
| 2026-04-20 02:49 | -5.01910 | 120.13279 | 19827 ft | 384 kts | 235° |
| 2026-04-20 02:49 | -5.03405 | 120.11075 | 19334 ft | 380 kts | 235° |
| 2026-04-20 02:49 | -5.04887 | 120.08892 | 18837 ft | 377 kts | 235° |
| 2026-04-20 02:50 | -5.06360 | 120.06724 | 18329 ft | 375 kts | 235° |
| 2026-04-20 02:50 | -5.07825 | 120.04569 | 17821 ft | 373 kts | 234° |
| 2026-04-20 02:50 | -5.09285 | 120.02422 | 17311 ft | 372 kts | 235° |
| 2026-04-20 02:50 | -5.10741 | 120.00283 | 16788 ft | 370 kts | 235° |
| 2026-04-20 02:51 | -5.12184 | 119.98160 | 16269 ft | 368 kts | 234° |
| 2026-04-20 02:51 | -5.13622 | 119.96043 | 15747 ft | 366 kts | 235° |
| 2026-04-20 02:51 | -5.15050 | 119.93939 | 15226 ft | 364 kts | 235° |
| 2026-04-20 02:51 | -5.16471 | 119.91845 | 14707 ft | 362 kts | 235° |
| 2026-04-20 02:52 | -5.17883 | 119.89767 | 14183 ft | 360 kts | 235° |
| 2026-04-20 02:52 | -5.19290 | 119.87698 | 13665 ft | 358 kts | 235° |
| 2026-04-20 02:52 | -5.20689 | 119.85635 | 13146 ft | 356 kts | 235° |
| 2026-04-20 02:52 | -5.22079 | 119.83583 | 12627 ft | 355 kts | 235° |
| 2026-04-20 02:53 | -5.23442 | 119.81572 | 12114 ft | 353 kts | 235° |
| 2026-04-20 02:53 | -5.24819 | 119.79541 | 11591 ft | 351 kts | 235° |
| 2026-04-20 02:53 | -5.26193 | 119.77520 | 11072 ft | 350 kts | 235° |
| 2026-04-20 02:53 | -5.27561 | 119.75510 | 10547 ft | 348 kts | 235° |
| 2026-04-20 02:54 | -5.28907 | 119.73530 | 10334 ft | 337 kts | 235° |
| 2026-04-20 02:54 | -5.30204 | 119.71618 | 10199 ft | 326 kts | 236° |
| 2026-04-20 02:54 | -5.31452 | 119.69771 | 10076 ft | 315 kts | 236° |
| 2026-04-20 02:54 | -5.32663 | 119.67977 | 9928 ft | 305 kts | 236° |
| 2026-04-20 02:55 | -5.33838 | 119.66241 | 9706 ft | 301 kts | 235° |
| 2026-04-20 02:55 | -5.35021 | 119.64498 | 9338 ft | 300 kts | 235° |
| 2026-04-20 02:55 | -5.36197 | 119.62764 | 8934 ft | 301 kts | 235° |
| 2026-04-20 02:55 | -5.37200 | 119.60924 | 8523 ft | 302 kts | 252° |
| 2026-04-20 02:56 | -5.37471 | 119.58849 | 8113 ft | 302 kts | 275° |
| 2026-04-20 02:56 | -5.36921 | 119.56827 | 7680 ft | 303 kts | 297° |
| 2026-04-20 02:56 | -5.35905 | 119.54973 | 7255 ft | 303 kts | 299° |
| 2026-04-20 02:56 | -5.34884 | 119.53119 | 6829 ft | 304 kts | 298° |
| 2026-04-20 02:57 | -5.33868 | 119.51257 | 6400 ft | 304 kts | 298° |
| 2026-04-20 02:57 | -5.32853 | 119.49392 | 5968 ft | 305 kts | 298° |
| 2026-04-20 02:57 | -5.31835 | 119.47527 | 5541 ft | 305 kts | 298° |
| 2026-04-20 02:57 | -5.30815 | 119.45660 | 5107 ft | 305 kts | 299° |
| 2026-04-20 02:58 | -5.29474 | 119.44046 | 4664 ft | 303 kts | 325° |
| 2026-04-20 02:58 | -5.27558 | 119.43349 | 4248 ft | 290 kts | 358° |
| 2026-04-20 02:58 | -5.25660 | 119.43759 | 3894 ft | 275 kts | 27° |
| 2026-04-20 02:58 | -5.24159 | 119.44827 | 3518 ft | 264 kts | 52° |
| 2026-04-20 02:59 | -5.23178 | 119.46331 | 3155 ft | 250 kts | 55° |
| 2026-04-20 02:59 | -5.21910 | 119.47355 | 2858 ft | 227 kts | 22° |
| 2026-04-20 02:59 | -5.20502 | 119.47921 | 2580 ft | 209 kts | 28° |
| 2026-04-20 02:59 | -5.19299 | 119.48588 | 2334 ft | 186 kts | 31° |
| 2026-04-20 03:00 | -5.18247 | 119.49197 | 2089 ft | 166 kts | 31° |
| 2026-04-20 03:00 | -5.17284 | 119.49755 | 1865 ft | 157 kts | 31° |
| 2026-04-20 03:00 | -5.16348 | 119.50295 | 1670 ft | 155 kts | 30° |
| 2026-04-20 03:00 | -5.15423 | 119.50829 | 1457 ft | 153 kts | 31° |
| 2026-04-20 03:01 | -5.14505 | 119.51359 | 1262 ft | 152 kts | 30° |
| 2026-04-20 03:01 | -5.13590 | 119.51887 | 1058 ft | 152 kts | 29° |
| 2026-04-20 03:01 | -5.12678 | 119.52416 | 838 ft | 152 kts | 29° |
| 2026-04-20 03:01 | -5.11898 | 119.52861 | 686 ft | 151 kts | 28° |
| 2026-04-20 03:02 | -5.10991 | 119.53391 | 484 ft | 150 kts | 31° |
| 2026-04-20 03:02 | -5.10090 | 119.53909 | 315 ft | 149 kts | 28° |
| 2026-04-20 03:02 | -5.09197 | 119.54425 | 87 ft | 147 kts | 30° |
| 2026-04-20 03:02 | -5.08347 | 119.54912 | 49 ft | 129 kts | 30° |
| 2026-04-20 03:03 | -5.07688 | 119.55294 | 40 ft | 74 kts | 30° |
| 2026-04-20 03:03 | -5.07452 | 119.55417 | 41 ft | 26 kts | 13° |
| 2026-04-20 03:03 | -5.07316 | 119.55428 | 40 ft | 14 kts | 0° |
| 2026-04-20 03:03 | -5.07214 | 119.55428 | 41 ft | 12 kts | 356° |
| 2026-04-20 03:04 | -5.07204 | 119.55371 | 39 ft | 11 kts | 229° |
| 2026-04-20 03:04 | -5.07279 | 119.55323 | 41 ft | 14 kts | 210° |
| 2026-04-20 03:04 | -5.07374 | 119.55270 | 41 ft | 17 kts | 210° |
| 2026-04-20 03:04 | -5.07481 | 119.55209 | 41 ft | 12 kts | 210° |
| 2026-04-20 03:05 | -5.07561 | 119.55162 | 41 ft | 11 kts | 210° |
| 2026-04-20 03:05 | -5.07617 | 119.55102 | 41 ft | 13 kts | 258° |
| 2026-04-20 03:05 | -5.07588 | 119.55023 | 41 ft | 11 kts | 295° |
| 2026-04-20 03:05 | -5.07590 | 119.54948 | 41 ft | 10 kts | 257° |
| 2026-04-20 03:06 | -5.07623 | 119.54900 | 41 ft | 3 kts | 213° |
| 2026-04-20 03:06 | -5.07641 | 119.54881 | 41 ft | 5 kts | 246° |
| 2026-04-20 03:06 | -5.07626 | 119.54851 | 39 ft | 4 kts | 302° |
| 2026-04-20 03:06 | -5.07615 | 119.54832 | 41 ft | 1 kts | 300° |
| 2026-04-20 03:07 | -5.07611 | 119.54826 | 41 ft | 1 kts | 300° |
| 2026-04-20 03:07 | -5.07609 | 119.54823 | 41 ft | 0 kts | 300° |